Аэропорт: Витебск Восточный. Витебск

ICAO: UMII

METAR:
2019/05/25 16:00
UMII 251600Z 29004G07MPS 9999 SCT033TCU 21/11 Q1005 NOSIG
METAR:
2018/01/28 15:24
TAF TAF UMII 281405Z 2815/2924 19004G09MPS 2000 SN BR OVC005 
      TEMPO 2815/2824 0500 FZDZ FZFG VV002